Emmagracht — PDYX — position and weather

sailwx.info

Track history (hours):
 
Tides and Currents Weather Stations Pressure Air Temp Water Temp Dewpoint Dewpoint Depression Visibility Wind Speed Wind Dir Waves Ship Positions

Emmagracht

Last reported at 2017-Jun-19 15:27 UTC. Time now 2017-Jun-25 22:36 UTC.
Position N 45°13' W 074°03'.

Length 136 m; beam 19 m; draft 9 m.

Type: Cargo ship. MMSI: 246308000.

Date/timePositionNaut miles runAvg speedWind from/ knotsBaromVisibWave heightAir tempDewpointWater temp
2017-Jun-19 15:27N 45°13' W 074°03'4 8.2
2017-Jun-19 15:01N 45°15' W 073°58'4 7.4
2017-Jun-19 14:30N 45°18' W 073°56'1 1.2
2017-Jun-19 13:30N 45°19' W 073°55'0 0.1
2017-Jun-19 13:00N 45°19' W 073°55'0 0.0
2017-Jun-19 12:30N 45°19' W 073°55'1 1.2
2017-Jun-19 12:01N 45°20' W 073°54'2 4.4
2017-Jun-19 11:30N 45°21' W 073°52'5 9.5
2017-Jun-19 11:00N 45°24' W 073°47'5 9.0
2017-Jun-19 10:30N 45°25' W 073°40'3 5.7
2017-Jun-19 09:58N 45°24' W 073°36'2 3.3
2017-Jun-19 09:30N 45°24' W 073°34'1 1.4
2017-Jun-19 09:00N 45°24' W 073°33'3 5.5
2017-Jun-19 08:29N 45°27' W 073°30'  
2017-Jun-16 18:00N 48°48' W 062°48'15713.1 230 / 61022.4 5.4 15.012.512.0
2017-Jun-16 06:00N 47°30' W 059°24'15312.8 230 / 101019.5 6.5 6.5 5.0
2017-Jun-15 18:00N 46°18' W 056°06'14912.4 290 / 211013.5 5.4 8.0 6.0 7.0
2017-Jun-15 06:00N 45°12' W 052°54'15512.9 230 / 161007.5 5.4 6.0 3.9 5.0
2017-Jun-14 18:00N 44°00' W 049°42'14512.1 250 / 111002.4 5.4 11.0 9.2 9.0
2017-Jun-14 06:00N 42°30' W 047°06'14712.3 250 / 201007.4 16.016.013.0
2017-Jun-13 18:00N 41°00' W 044°30'12810.7 280 / 211012.4 5.4 18.014.815.0
2017-Jun-13 06:00N 39°54' W 042°06'29812.4 240 / 211012.4 5.4 20.018.518.0
2017-Jun-12 06:00N 38°12' W 036°06'6711.3 270 / 111022.4 2.2 18.516.216.0
2017-Jun-12 00:01N 37°52' W 034°44'010.1
2017-Jun-12 00:01N 37°52' W 034°44'6513.4
2017-Jun-11 19:10N 37°29' W 033°28'3212.7
2017-Jun-11 16:38N 37°19' W 032°49'2012.4
2017-Jun-11 14:59N 37°12' W 032°25'612.2
2017-Jun-11 14:29N 37°09' W 032°18'1512.1
2017-Jun-11 13:16N 37°03' W 032°01'712.2
2017-Jun-11 12:42N 37°01' W 031°53'1212.3
2017-Jun-11 11:42N 36°56' W 031°39'812.6
2017-Jun-11 11:03N 36°53' W 031°29'112.7
2017-Jun-11 10:58N 36°53' W 031°28'1012.9
2017-Jun-11 10:09N 36°49' W 031°16'413.3
2017-Jun-11 09:53N 36°48' W 031°12'1613.2
2017-Jun-11 08:39N 36°43' W 030°52'213.0
2017-Jun-11 08:27N 36°42' W 030°50'1212.8
2017-Jun-11 07:34N 36°38' W 030°36'112.2
2017-Jun-11 07:30N 36°38' W 030°35'912.0
2017-Jun-11 06:43N 36°35' W 030°24'210.7
2017-Jun-11 06:30N 36°35' W 030°21'610.8
2017-Jun-11 05:59N 36°33' W 030°15'810.6
2017-Jun-11 05:12N 36°30' W 030°05'211.3
2017-Jun-11 05:00N 36°29' W 030°02'510.2
2017-Jun-11 04:30N 36°27' W 029°56'5 9.1
2017-Jun-11 03:59N 36°25' W 029°51'4 8.9
2017-Jun-11 03:31N 36°23' W 029°47'5 9.2
2017-Jun-11 03:00N 36°20' W 029°42'5 9.6
2017-Jun-11 02:30N 36°17' W 029°37'5 9.6
2017-Jun-11 01:56N 36°15' W 029°31'5 9.6
2017-Jun-11 01:27N 36°13' W 029°26'5 9.8
2017-Jun-11 00:57N 36°11' W 029°20'4 9.9
2017-Jun-11 00:30N 36°10' W 029°15'165 9.6
2017-Jun-10 07:16N 35°46' W 025°53'3 7.7
2017-Jun-10 06:53N 35°48' W 025°50'4 7.7
2017-Jun-10 06:22N 35°50' W 025°46'3 7.7
2017-Jun-10 05:59N 35°51' W 025°42'4 7.9
2017-Jun-10 05:30N 35°53' W 025°38'4 7.6
2017-Jun-10 05:00N 35°55' W 025°34'4 7.6
2017-Jun-10 04:31N 35°57' W 025°31'4 7.6
2017-Jun-10 04:00N 35°59' W 025°27'4 8.0
2017-Jun-10 03:30N 36°02' W 025°22'4 7.8
2017-Jun-10 03:00N 36°04' W 025°18'4 8.0
2017-Jun-10 02:30N 36°06' W 025°14'4 7.8
2017-Jun-10 02:00N 36°08' W 025°10'4 7.7
2017-Jun-10 01:30N 36°10' W 025°06'4 7.7
2017-Jun-10 01:00N 36°13' W 025°02'4 7.4
2017-Jun-10 00:30N 36°15' W 024°59'4 7.1
2017-Jun-10 00:00N 36°17' W 024°55'3 7.0
2017-Jun-09 23:30N 36°19' W 024°52'3 7.0
2017-Jun-09 23:00N 36°21' W 024°48'3 6.9
2017-Jun-09 22:31N 36°23' W 024°45'3 6.7
2017-Jun-09 22:00N 36°25' W 024°41'3 5.9
2017-Jun-09 21:30N 36°27' W 024°38'3 5.9
2017-Jun-09 21:00N 36°28' W 024°35'3 6.0
2017-Jun-09 20:30N 36°30' W 024°32'3 6.1
2017-Jun-09 20:00N 36°31' W 024°29'4 8.2
2017-Jun-09 19:30N 36°33' W 024°24'5 9.3
2017-Jun-09 19:00N 36°33' W 024°19'611.1
2017-Jun-09 18:30N 36°31' W 024°12'611.9
2017-Jun-09 18:00N 36°31' W 024°04'611.9
2017-Jun-09 17:30N 36°30' W 023°57'611.8
2017-Jun-09 17:00N 36°30' W 023°50'611.8
2017-Jun-09 16:31N 36°29' W 023°42'611.9
2017-Jun-09 16:00N 36°28' W 023°35'612.0
2017-Jun-09 15:30N 36°28' W 023°28'  
Track history (hours):
 
Tides and Currents Weather Stations Pressure Air Temp Water Temp Dewpoint Dewpoint Depression Visibility Wind Speed Wind Dir Waves Ship Positions

Emmagracht

Last reported at 2017-Jun-19 15:27 UTC. Time now 2017-Jun-25 22:36 UTC.
Position N 45°13' W 074°03'.

Length 136 m; beam 19 m; draft 9 m.

Type: Cargo ship. MMSI: 246308000.

Date/timePositionNaut miles runAvg speedWind from/ knotsBaromVisibWave heightAir tempDewpointWater temp
2017-Jun-19 15:27N 45°13' W 074°03'4 8.2
2017-Jun-19 15:01N 45°15' W 073°58'4 7.4
2017-Jun-19 14:30N 45°18' W 073°56'1 1.2
2017-Jun-19 13:30N 45°19' W 073°55'0 0.1
2017-Jun-19 13:00N 45°19' W 073°55'0 0.0
2017-Jun-19 12:30N 45°19' W 073°55'1 1.2
2017-Jun-19 12:01N 45°20' W 073°54'2 4.4
2017-Jun-19 11:30N 45°21' W 073°52'5 9.5
2017-Jun-19 11:00N 45°24' W 073°47'5 9.0
2017-Jun-19 10:30N 45°25' W 073°40'3 5.7
2017-Jun-19 09:58N 45°24' W 073°36'2 3.3
2017-Jun-19 09:30N 45°24' W 073°34'1 1.4
2017-Jun-19 09:00N 45°24' W 073°33'3 5.5
2017-Jun-19 08:29N 45°27' W 073°30'  
2017-Jun-16 18:00N 48°48' W 062°48'15713.1 230 / 61022.4 5.4 15.012.512.0
2017-Jun-16 06:00N 47°30' W 059°24'15312.8 230 / 101019.5 6.5 6.5 5.0
2017-Jun-15 18:00N 46°18' W 056°06'14912.4 290 / 211013.5 5.4 8.0 6.0 7.0
2017-Jun-15 06:00N 45°12' W 052°54'15512.9 230 / 161007.5 5.4 6.0 3.9 5.0
2017-Jun-14 18:00N 44°00' W 049°42'14512.1 250 / 111002.4 5.4 11.0 9.2 9.0
2017-Jun-14 06:00N 42°30' W 047°06'14712.3 250 / 201007.4 16.016.013.0
2017-Jun-13 18:00N 41°00' W 044°30'12810.7 280 / 211012.4 5.4 18.014.815.0
2017-Jun-13 06:00N 39°54' W 042°06'29812.4 240 / 211012.4 5.4 20.018.518.0
2017-Jun-12 06:00N 38°12' W 036°06'6711.3 270 / 111022.4 2.2 18.516.216.0
2017-Jun-12 00:01N 37°52' W 034°44'010.1
2017-Jun-12 00:01N 37°52' W 034°44'6513.4
2017-Jun-11 19:10N 37°29' W 033°28'3212.7
2017-Jun-11 16:38N 37°19' W 032°49'2012.4
2017-Jun-11 14:59N 37°12' W 032°25'612.2
2017-Jun-11 14:29N 37°09' W 032°18'1512.1
2017-Jun-11 13:16N 37°03' W 032°01'712.2
2017-Jun-11 12:42N 37°01' W 031°53'1212.3
2017-Jun-11 11:42N 36°56' W 031°39'812.6
2017-Jun-11 11:03N 36°53' W 031°29'112.7
2017-Jun-11 10:58N 36°53' W 031°28'1012.9
2017-Jun-11 10:09N 36°49' W 031°16'413.3
2017-Jun-11 09:53N 36°48' W 031°12'1613.2
2017-Jun-11 08:39N 36°43' W 030°52'213.0
2017-Jun-11 08:27N 36°42' W 030°50'1212.8
2017-Jun-11 07:34N 36°38' W 030°36'112.2
2017-Jun-11 07:30N 36°38' W 030°35'912.0
2017-Jun-11 06:43N 36°35' W 030°24'210.7
2017-Jun-11 06:30N 36°35' W 030°21'610.8
2017-Jun-11 05:59N 36°33' W 030°15'810.6
2017-Jun-11 05:12N 36°30' W 030°05'211.3
2017-Jun-11 05:00N 36°29' W 030°02'510.2
2017-Jun-11 04:30N 36°27' W 029°56'5 9.1
2017-Jun-11 03:59N 36°25' W 029°51'4 8.9
2017-Jun-11 03:31N 36°23' W 029°47'5 9.2
2017-Jun-11 03:00N 36°20' W 029°42'5 9.6
2017-Jun-11 02:30N 36°17' W 029°37'5 9.6
2017-Jun-11 01:56N 36°15' W 029°31'5 9.6
2017-Jun-11 01:27N 36°13' W 029°26'5 9.8
2017-Jun-11 00:57N 36°11' W 029°20'4 9.9
2017-Jun-11 00:30N 36°10' W 029°15'165 9.6
2017-Jun-10 07:16N 35°46' W 025°53'3 7.7
2017-Jun-10 06:53N 35°48' W 025°50'4 7.7
2017-Jun-10 06:22N 35°50' W 025°46'3 7.7
2017-Jun-10 05:59N 35°51' W 025°42'4 7.9
2017-Jun-10 05:30N 35°53' W 025°38'4 7.6
2017-Jun-10 05:00N 35°55' W 025°34'4 7.6
2017-Jun-10 04:31N 35°57' W 025°31'4 7.6
2017-Jun-10 04:00N 35°59' W 025°27'4 8.0
2017-Jun-10 03:30N 36°02' W 025°22'4 7.8
2017-Jun-10 03:00N 36°04' W 025°18'4 8.0
2017-Jun-10 02:30N 36°06' W 025°14'4 7.8
2017-Jun-10 02:00N 36°08' W 025°10'4 7.7
2017-Jun-10 01:30N 36°10' W 025°06'4 7.7
2017-Jun-10 01:00N 36°13' W 025°02'4 7.4
2017-Jun-10 00:30N 36°15' W 024°59'4 7.1
2017-Jun-10 00:00N 36°17' W 024°55'3 7.0
2017-Jun-09 23:30N 36°19' W 024°52'3 7.0
2017-Jun-09 23:00N 36°21' W 024°48'3 6.9
2017-Jun-09 22:31N 36°23' W 024°45'3 6.7
2017-Jun-09 22:00N 36°25' W 024°41'3 5.9
2017-Jun-09 21:30N 36°27' W 024°38'3 5.9
2017-Jun-09 21:00N 36°28' W 024°35'3 6.0
2017-Jun-09 20:30N 36°30' W 024°32'3 6.1
2017-Jun-09 20:00N 36°31' W 024°29'4 8.2
2017-Jun-09 19:30N 36°33' W 024°24'5 9.3
2017-Jun-09 19:00N 36°33' W 024°19'611.1
2017-Jun-09 18:30N 36°31' W 024°12'611.9
2017-Jun-09 18:00N 36°31' W 024°04'611.9
2017-Jun-09 17:30N 36°30' W 023°57'611.8
2017-Jun-09 17:00N 36°30' W 023°50'611.8
2017-Jun-09 16:31N 36°29' W 023°42'611.9
2017-Jun-09 16:00N 36°28' W 023°35'612.0
2017-Jun-09 15:30N 36°28' W 023°28'  

Dump ship's entire track history